createdAt,value
2022-08-21T00:00:29.107Z,101505.53
2022-08-21T00:03:02.331Z,101505.19
2022-08-21T00:05:29.930Z,101500.28
2022-08-21T00:07:57.468Z,101493.44
2022-08-21T00:10:25.201Z,101499.06
2022-08-21T00:12:52.797Z,101490.69
2022-08-21T00:15:21.166Z,101495.38
2022-08-21T00:17:50.187Z,101494.97
2022-08-21T00:20:17.987Z,101495.13
2022-08-21T00:22:46.454Z,101495.44
2022-08-21T00:25:14.530Z,101498.25
2022-08-21T00:27:43.246Z,101502.09
2022-08-21T00:30:11.528Z,101482.84
2022-08-21T00:32:47.878Z,101488.50
2022-08-21T00:35:17.996Z,101492.47
2022-08-21T00:37:45.721Z,101494.63
2022-08-21T00:40:14.862Z,101496.59
2022-08-21T00:42:42.417Z,101493.22
2022-08-21T00:45:10.399Z,101494.38
2022-08-21T00:47:38.046Z,101492.69
2022-08-21T00:50:07.820Z,101484.81
2022-08-21T00:52:40.906Z,101493.94
2022-08-21T00:55:09.700Z,101494.25
2022-08-21T00:57:38.741Z,101499.78
2022-08-21T01:00:08.945Z,101490.19
2022-08-21T01:02:36.394Z,101490.53
2022-08-21T01:05:04.452Z,101495.03
2022-08-21T01:07:32.459Z,101488.00
2022-08-21T01:10:01.304Z,101490.00
2022-08-21T01:12:29.962Z,101494.47
2022-08-21T01:14:57.608Z,101493.78
2022-08-21T01:17:25.043Z,101495.78
2022-08-21T01:19:52.491Z,101495.09
2022-08-21T01:22:21.514Z,101494.53
2022-08-21T01:24:48.953Z,101494.03
2022-08-21T01:27:17.098Z,101488.13
2022-08-21T01:29:45.685Z,101495.44
2022-08-21T01:32:14.103Z,101497.44
2022-08-21T01:34:42.649Z,101502.94
2022-08-21T01:37:10.166Z,101490.69
2022-08-21T01:39:39.227Z,101495.34
2022-08-21T01:42:06.918Z,101496.50
2022-08-21T01:44:35.746Z,101494.13
2022-08-21T01:47:04.334Z,101498.78
2022-08-21T01:49:31.770Z,101492.75
2022-08-21T01:51:59.164Z,101495.56
2022-08-21T01:54:26.620Z,101494.03
2022-08-21T01:56:55.809Z,101490.66
2022-08-21T01:59:23.339Z,101490.09
2022-08-21T02:01:51.014Z,101485.91
2022-08-21T02:04:18.604Z,101482.56
2022-08-21T02:06:46.057Z,101481.88
2022-08-21T02:09:14.276Z,101491.84
2022-08-21T02:11:42.261Z,101491.84
2022-08-21T02:14:12.749Z,101488.47
2022-08-21T02:16:40.196Z,101477.97
2022-08-21T02:19:07.826Z,101481.63
2022-08-21T02:21:35.417Z,101478.13
2022-08-21T02:24:02.861Z,101486.13
2022-08-21T02:26:30.317Z,101485.41
2022-08-21T02:28:57.785Z,101478.38
2022-08-21T02:31:27.105Z,101477.72
2022-08-21T02:33:54.547Z,101479.69
2022-08-21T02:36:22.008Z,101479.69
2022-08-21T02:38:50.393Z,101480.81
2022-08-21T02:41:18.598Z,101470.28
2022-08-21T02:43:46.117Z,101473.25
2022-08-21T02:46:15.081Z,101465.53
2022-08-21T02:48:44.061Z,101472.81
2022-08-21T02:51:12.170Z,101459.78
2022-08-21T02:53:39.907Z,101467.94
2022-08-21T02:56:09.773Z,101465.19
2022-08-21T02:58:40.404Z,101457.44
2022-08-21T03:01:10.589Z,101461.63
2022-08-21T03:03:38.837Z,101452.63
2022-08-21T03:06:09.804Z,101461.47
2022-08-21T03:08:38.465Z,101450.13
2022-08-21T03:11:07.076Z,101453.78
2022-08-21T03:13:35.584Z,101449.59
2022-08-21T03:16:05.224Z,101453.25
2022-08-21T03:18:37.740Z,101455.22
2022-08-21T03:21:07.482Z,101441.19
2022-08-21T03:23:35.150Z,101445.50
2022-08-21T03:26:02.945Z,101448.81
2022-08-21T03:28:30.695Z,101455.06
2022-08-21T03:30:58.286Z,101457.63
2022-08-21T03:33:25.975Z,101457.38
2022-08-21T03:36:01.348Z,101456.03
2022-08-21T03:38:32.015Z,101446.78
2022-08-21T03:41:00.905Z,101453.25
2022-08-21T03:43:31.129Z,101454.38
2022-08-21T03:46:00.487Z,101456.34
2022-08-21T03:48:28.140Z,101454.94
2022-08-21T03:50:55.741Z,101452.59
2022-08-21T03:53:23.722Z,101453.91
2022-08-21T03:55:54.002Z,101456.56
2022-08-21T03:58:24.259Z,101450.47
2022-08-21T04:00:54.849Z,101455.28
2022-08-21T04:03:22.503Z,101453.03
2022-08-21T04:05:50.180Z,101458.38
2022-08-21T04:08:19.591Z,101457.00
2022-08-21T04:10:48.905Z,101452.78
2022-08-21T04:13:18.141Z,101454.44
2022-08-21T04:15:45.782Z,101448.75
2022-08-21T04:18:14.033Z,101456.75
2022-08-21T04:20:42.903Z,101449.72
2022-08-21T04:23:23.593Z,101450.00
2022-08-21T04:25:52.709Z,101456.31
2022-08-21T04:28:23.347Z,101448.16
2022-08-21T04:30:51.614Z,101451.97
2022-08-21T04:33:19.330Z,101453.97
2022-08-21T04:35:46.973Z,101458.47
2022-08-21T04:38:14.755Z,101465.75
2022-08-21T04:40:42.245Z,101463.97
2022-08-21T04:43:10.933Z,101469.34
2022-08-21T04:45:41.584Z,101466.38
2022-08-21T04:48:13.954Z,101468.63
2022-08-21T04:50:42.644Z,101468.09
2022-08-21T04:53:14.451Z,101461.03
2022-08-21T04:55:42.670Z,101467.66
2022-08-21T04:58:11.327Z,101465.38
2022-08-21T05:00:40.069Z,101470.88
2022-08-21T05:03:08.564Z,101469.59
2022-08-21T05:05:36.607Z,101469.84
2022-08-21T05:08:05.252Z,101479.25
2022-08-21T05:10:33.775Z,101466.59
2022-08-21T05:13:02.449Z,101476.28
2022-08-21T05:15:30.929Z,101467.81
2022-08-21T05:18:01.396Z,101469.50
2022-08-21T05:20:29.432Z,101467.59
2022-08-21T05:22:57.398Z,101468.72
2022-08-21T05:25:25.750Z,101462.13
2022-08-21T05:27:55.856Z,101451.56
2022-08-21T05:30:25.782Z,101461.31
2022-08-21T05:33:00.137Z,101458.78
2022-08-21T05:35:28.395Z,101452.75
2022-08-21T05:37:56.249Z,101459.06
2022-08-21T05:40:24.050Z,101458.00
2022-08-21T05:42:54.431Z,101459.78
2022-08-21T05:45:41.302Z,101458.69
2022-08-21T05:48:14.095Z,101456.69
2022-08-21T05:50:41.969Z,101470.84
2022-08-21T05:53:10.622Z,101470.97
2022-08-21T05:55:44.247Z,101473.63
2022-08-21T05:58:13.357Z,101472.13
2022-08-21T06:00:41.180Z,101471.28
2022-08-21T06:03:14.517Z,101472.13
2022-08-21T06:05:42.142Z,101473.25
2022-08-21T06:08:09.814Z,101470.59
2022-08-21T06:10:37.399Z,101470.75
2022-08-21T06:13:05.562Z,101468.75
2022-08-21T06:15:33.286Z,101470.28
2022-08-21T06:18:00.914Z,101467.34
2022-08-21T06:20:30.189Z,101462.69
2022-08-21T06:22:57.901Z,101460.69
2022-08-21T06:25:25.962Z,101468.56
2022-08-21T06:27:53.680Z,101467.44
2022-08-21T06:30:21.591Z,101462.78
2022-08-21T06:32:49.241Z,101464.47
2022-08-21T06:35:16.858Z,101465.84
2022-08-21T06:37:45.823Z,101458.38
2022-08-21T06:40:14.016Z,101461.88
2022-08-21T06:42:42.813Z,101457.22
2022-08-21T06:45:11.552Z,101463.81
2022-08-21T06:47:39.265Z,101468.00
2022-08-21T06:50:09.268Z,101460.56
2022-08-21T06:52:36.978Z,101457.56
2022-08-21T06:55:07.887Z,101463.16
2022-08-21T06:57:35.697Z,101462.16
2022-08-21T07:00:04.010Z,101455.00
2022-08-21T07:02:31.602Z,101459.22
2022-08-21T07:05:00.238Z,101462.13
2022-08-21T07:07:27.879Z,101458.16
2022-08-21T07:09:55.570Z,101451.25
2022-08-21T07:12:24.588Z,101451.75
2022-08-21T07:14:52.176Z,101459.69
2022-08-21T07:17:19.796Z,101450.41
2022-08-21T07:19:47.804Z,101456.72
2022-08-21T07:22:17.155Z,101457.09
2022-08-21T07:24:44.770Z,101450.59
2022-08-21T07:27:12.420Z,101449.63
2022-08-21T07:29:41.480Z,101451.97
2022-08-21T07:32:09.342Z,101450.97
2022-08-21T07:34:37.160Z,101442.66
2022-08-21T07:37:06.194Z,101445.84
2022-08-21T07:39:37.897Z,101442.19
2022-08-21T07:42:08.315Z,101439.22
2022-08-21T07:44:36.336Z,101437.56
2022-08-21T07:47:05.726Z,101436.78
2022-08-21T07:49:33.371Z,101434.50
2022-08-21T07:52:00.969Z,101436.38
2022-08-21T07:54:33.546Z,101429.41
2022-08-21T07:57:02.374Z,101424.41
2022-08-21T07:59:30.431Z,101428.81
2022-08-21T08:01:58.436Z,101421.69
2022-08-21T08:04:27.398Z,101413.69
2022-08-21T08:06:55.230Z,101420.25
2022-08-21T08:09:22.873Z,101418.59
2022-08-21T08:11:50.538Z,101419.44
2022-08-21T08:14:18.471Z,101422.13
2022-08-21T08:16:46.230Z,101426.16
2022-08-21T08:19:13.909Z,101420.44
2022-08-21T08:21:43.028Z,101421.75
2022-08-21T08:24:18.976Z,101417.38
2022-08-21T08:26:53.398Z,101421.56
2022-08-21T08:29:22.227Z,101419.19
2022-08-21T08:31:49.923Z,101435.13
2022-08-21T08:34:25.411Z,101424.41
2022-08-21T08:36:55.423Z,101425.09
2022-08-21T08:39:27.036Z,101429.44
2022-08-21T08:42:01.678Z,101433.78
2022-08-21T08:44:32.697Z,101435.63
2022-08-21T08:47:01.482Z,101425.91
2022-08-21T08:49:33.745Z,101424.06
2022-08-21T08:53:53.374Z,101434.13
2022-08-21T08:56:24.916Z,101426.25
2022-08-21T08:58:54.139Z,101425.72
2022-08-21T09:01:22.867Z,101426.41
2022-08-21T09:03:52.842Z,101421.38
2022-08-21T09:06:31.058Z,101419.06
2022-08-21T09:09:05.246Z,101413.69
2022-08-21T09:11:38.573Z,101430.28
2022-08-21T09:14:12.399Z,101416.41
2022-08-21T09:16:46.425Z,101407.53
2022-08-21T09:19:30.203Z,101423.78
2022-08-21T09:22:04.569Z,101413.59
2022-08-21T09:24:36.525Z,101417.75
2022-08-21T09:27:09.007Z,101412.41
2022-08-21T09:29:40.769Z,101419.13
2022-08-21T09:32:17.978Z,101421.81
2022-08-21T09:34:58.362Z,101424.47
2022-08-21T09:37:26.635Z,101424.66
2022-08-21T09:39:55.739Z,101423.31
2022-08-21T09:42:26.870Z,101417.28
2022-08-21T09:45:09.710Z,101409.03
2022-08-21T09:47:37.868Z,101406.03
2022-08-21T09:50:16.034Z,101414.41
2022-08-21T09:52:56.973Z,101410.88
2022-08-21T09:55:52.182Z,101414.53
2022-08-21T09:58:20.393Z,101415.38
2022-08-21T10:00:59.661Z,101416.22
2022-08-21T10:03:27.844Z,101416.38
2022-08-21T10:05:59.817Z,101415.72
2022-08-21T10:08:30.589Z,101405.47
2022-08-21T10:11:05.196Z,101420.06
2022-08-21T10:13:45.850Z,101405.66
2022-08-21T10:16:20.287Z,101404.66
2022-08-21T10:18:54.022Z,101413.88
2022-08-21T10:21:25.583Z,101409.84
2022-08-21T10:24:03.367Z,101414.69
2022-08-21T10:26:44.921Z,101413.53
2022-08-21T10:29:20.026Z,101408.66
2022-08-21T10:31:56.384Z,101408.31
2022-08-21T10:34:33.969Z,101409.63
2022-08-21T10:39:26.544Z,101400.34
2022-08-21T10:42:19.092Z,101401.44
2022-08-21T10:44:53.682Z,101398.19
2022-08-21T10:47:26.786Z,101410.44
2022-08-21T10:50:01.503Z,101406.59
2022-08-21T10:52:38.731Z,101401.03
2022-08-21T10:55:16.547Z,101397.81
2022-08-21T10:57:49.898Z,101390.56
2022-08-21T11:00:19.876Z,101391.34
2022-08-21T11:02:51.797Z,101400.13
2022-08-21T11:05:23.128Z,101394.31
2022-08-21T11:07:55.840Z,101387.06
2022-08-21T11:10:30.398Z,101393.91
2022-08-21T11:13:01.441Z,101397.25
2022-08-21T11:15:38.533Z,101396.94
2022-08-21T11:18:17.135Z,101389.44
2022-08-21T11:20:48.917Z,101391.28
2022-08-21T11:23:20.307Z,101384.53
2022-08-21T11:25:53.922Z,101396.91
2022-08-21T11:28:25.824Z,101390.97
2022-08-21T11:31:01.670Z,101394.78
2022-08-21T11:33:39.990Z,101397.78
2022-08-21T11:36:13.551Z,101395.06
2022-08-21T11:38:43.327Z,101393.19
2022-08-21T11:41:21.895Z,101398.25
2022-08-21T11:43:53.894Z,101402.88
2022-08-21T11:46:27.928Z,101400.50
2022-08-21T11:49:08.659Z,101395.13
2022-08-21T11:51:40.724Z,101392.19
2022-08-21T11:54:14.415Z,101384.09
2022-08-21T11:56:47.288Z,101383.47
2022-08-21T11:59:21.642Z,101397.06
2022-08-21T12:01:51.598Z,101388.72
2022-08-21T12:04:26.176Z,101390.41
2022-08-21T12:06:54.763Z,101386.88
2022-08-21T12:09:33.742Z,101393.84
2022-08-21T12:12:14.540Z,101379.88
2022-08-21T12:14:46.802Z,101376.16
2022-08-21T12:17:20.909Z,101373.28
2022-08-21T12:19:59.286Z,101373.38
2022-08-21T12:22:39.036Z,101381.22
2022-08-21T12:25:09.466Z,101384.13
2022-08-21T12:27:49.630Z,101375.88
2022-08-21T12:30:27.306Z,101377.63
2022-08-21T12:33:01.222Z,101377.44
2022-08-21T12:35:34.160Z,101376.22
2022-08-21T12:38:06.559Z,101390.06
2022-08-21T12:40:42.946Z,101383.28
2022-08-21T12:43:18.799Z,101384.97
2022-08-21T12:45:50.027Z,101382.44
2022-08-21T12:48:24.991Z,101385.97
2022-08-21T12:50:54.545Z,101375.09
2022-08-21T12:53:28.277Z,101372.50
2022-08-21T12:56:00.712Z,101386.06
2022-08-21T12:58:29.825Z,101377.53
2022-08-21T13:01:01.800Z,101379.59
2022-08-21T13:03:29.974Z,101371.84
2022-08-21T13:05:57.744Z,101374.34
2022-08-21T13:08:27.140Z,101371.66
2022-08-21T13:11:00.036Z,101372.56
2022-08-21T13:13:44.664Z,101365.09
2022-08-21T13:16:14.871Z,101367.72
2022-08-21T13:18:56.801Z,101368.88
2022-08-21T13:21:30.532Z,101361.63
2022-08-21T13:24:38.717Z,101361.50
2022-08-21T13:26:59.598Z,101361.78
2022-08-21T13:29:32.916Z,101363.13
2022-08-21T13:32:02.599Z,101355.13
2022-08-21T13:34:39.069Z,101357.69
2022-08-21T13:38:44.769Z,101354.91
2022-08-21T13:41:22.331Z,101349.75
2022-08-21T13:43:58.926Z,101357.41
2022-08-21T13:46:29.250Z,101351.91
2022-08-21T13:48:57.226Z,101367.31
2022-08-21T13:51:25.029Z,101352.03
2022-08-21T13:53:55.745Z,101352.78
2022-08-21T13:56:25.516Z,101352.38
2022-08-21T13:58:54.206Z,101358.88
2022-08-21T14:01:24.386Z,101364.97
2022-08-21T14:03:54.488Z,101353.47
2022-08-21T14:06:24.784Z,101350.63
2022-08-21T14:08:55.712Z,101353.19
2022-08-21T14:11:23.613Z,101348.69
2022-08-21T14:13:53.715Z,101345.19
2022-08-21T14:16:23.116Z,101341.72
2022-08-21T14:18:58.444Z,101335.94
2022-08-21T14:21:33.847Z,101339.03
2022-08-21T14:24:08.779Z,101348.38
2022-08-21T14:26:38.007Z,101333.81
2022-08-21T14:29:11.250Z,101337.84
2022-08-21T14:31:43.065Z,101333.06
2022-08-21T14:34:13.794Z,101341.16
2022-08-21T14:36:48.020Z,101337.63
2022-08-21T14:39:17.434Z,101339.72
2022-08-21T14:41:46.962Z,101340.50
2022-08-21T14:44:14.899Z,101335.66
2022-08-21T14:46:54.171Z,101334.00
2022-08-21T14:49:23.936Z,101331.31
2022-08-21T14:51:57.695Z,101332.81
2022-08-21T14:54:28.092Z,101334.25
2022-08-21T14:57:01.000Z,101338.00
2022-08-21T14:59:28.600Z,101332.34
2022-08-21T15:01:57.147Z,101343.34
2022-08-21T15:04:24.862Z,101331.47
2022-08-21T15:06:52.665Z,101341.81
2022-08-21T15:09:20.287Z,101339.91
2022-08-21T15:11:49.325Z,101336.09
2022-08-21T15:14:20.483Z,101318.41
2022-08-21T15:16:48.354Z,101336.50
2022-08-21T15:19:16.146Z,101329.03
2022-08-21T15:21:43.756Z,101328.28
2022-08-21T15:24:11.695Z,101323.50
2022-08-21T15:26:39.368Z,101319.56
2022-08-21T15:29:09.414Z,101324.59
2022-08-21T15:31:38.509Z,101338.91
2022-08-21T15:34:06.172Z,101334.56
2022-08-21T15:36:33.773Z,101340.78
2022-08-21T15:39:01.392Z,101342.03
2022-08-21T15:41:29.107Z,101333.66
2022-08-21T15:43:56.709Z,101335.28
2022-08-21T15:46:25.676Z,101343.97
2022-08-21T15:48:56.559Z,101338.66
2022-08-21T15:51:27.307Z,101347.53
2022-08-21T15:53:54.935Z,101346.22
2022-08-21T15:56:25.579Z,101335.00
2022-08-21T15:58:56.634Z,101344.31
2022-08-21T16:01:25.691Z,101339.50
2022-08-21T16:03:54.825Z,101339.03
2022-08-21T16:06:37.642Z,101344.00
2022-08-21T16:09:10.293Z,101347.25
2022-08-21T16:11:37.971Z,101349.94
2022-08-21T16:14:05.995Z,101341.88
2022-08-21T16:16:35.994Z,101343.91
2022-08-21T16:19:06.880Z,101356.38
2022-08-21T16:21:34.832Z,101343.91
2022-08-21T16:24:02.689Z,101353.03
2022-08-21T16:26:31.518Z,101364.38
2022-08-21T16:29:33.278Z,101368.28
2022-08-21T16:32:01.908Z,101368.03
2022-08-21T16:34:29.770Z,101369.78
2022-08-21T16:36:57.379Z,101378.91
2022-08-21T16:39:25.220Z,101378.81
2022-08-21T16:41:52.927Z,101375.88
2022-08-21T16:44:20.783Z,101380.13
2022-08-21T16:46:50.231Z,101381.69
2022-08-21T16:49:17.921Z,101380.22
2022-08-21T16:51:45.656Z,101377.25
2022-08-21T16:54:13.918Z,101372.25
2022-08-21T16:56:45.739Z,101380.88
2022-08-21T16:59:15.231Z,101381.06
2022-08-21T17:01:45.666Z,101377.72
2022-08-21T17:04:14.834Z,101380.78
2022-08-21T17:06:43.954Z,101382.63
2022-08-21T17:09:12.448Z,101382.81
2022-08-21T17:11:42.061Z,101383.03
2022-08-21T17:14:13.317Z,101386.94
2022-08-21T17:16:43.195Z,101384.41
2022-08-21T17:19:12.937Z,101388.31
2022-08-21T17:21:42.102Z,101387.47
2022-08-21T17:24:09.896Z,101388.50
2022-08-21T17:26:37.953Z,101387.00
2022-08-21T17:29:09.721Z,101393.03
2022-08-21T17:31:37.986Z,101390.69
2022-08-21T17:34:07.325Z,101395.44
2022-08-21T17:36:35.078Z,101387.75
2022-08-21T17:39:05.455Z,101391.47
2022-08-21T17:41:33.159Z,101396.75
2022-08-21T17:44:06.257Z,101397.94
2022-08-21T17:46:34.176Z,101402.66
2022-08-21T17:49:01.910Z,101396.44
2022-08-21T17:51:29.569Z,101397.66
2022-08-21T17:53:57.378Z,101400.34
2022-08-21T17:56:28.319Z,101398.19
2022-08-21T17:58:56.055Z,101405.94
2022-08-21T18:01:24.126Z,101409.19
2022-08-21T18:03:51.823Z,101409.53
2022-08-21T18:06:19.446Z,101405.38
2022-08-21T18:08:47.180Z,101405.06
2022-08-21T18:11:23.149Z,101412.28
2022-08-21T18:13:54.000Z,101411.84
2022-08-21T18:16:21.892Z,101407.81
2022-08-21T18:18:51.417Z,101419.78
2022-08-21T18:21:19.226Z,101413.75
2022-08-21T18:23:46.907Z,101411.06
2022-08-21T18:26:16.158Z,101412.09
2022-08-21T18:28:44.438Z,101407.88
2022-08-21T18:31:14.219Z,101410.56
2022-08-21T18:33:43.809Z,101421.50
2022-08-21T18:36:26.651Z,101416.50
2022-08-21T18:38:54.965Z,101410.44
2022-08-21T18:41:23.135Z,101414.84
2022-08-21T18:43:50.842Z,101418.53
2022-08-21T18:46:20.026Z,101422.91
2022-08-21T18:48:47.666Z,101416.66
2022-08-21T18:51:15.518Z,101414.16
2022-08-21T18:53:43.617Z,101426.13
2022-08-21T18:56:15.553Z,101427.31
2022-08-21T18:58:44.931Z,101422.47
2022-08-21T19:01:13.089Z,101422.00
2022-08-21T19:03:42.746Z,101432.06
2022-08-21T19:06:11.961Z,101435.31
2022-08-21T19:08:39.822Z,101431.13
2022-08-21T19:11:07.815Z,101433.81
2022-08-21T19:13:36.106Z,101438.53
2022-08-21T19:16:05.305Z,101440.38
2022-08-21T19:18:35.445Z,101437.03
2022-08-21T19:21:05.370Z,101439.72
2022-08-21T19:23:35.563Z,101439.06
2022-08-21T19:26:05.213Z,101440.91
2022-08-21T19:28:36.667Z,101447.28
2022-08-21T19:31:10.775Z,101451.00
2022-08-21T19:33:41.075Z,101451.19
2022-08-21T19:36:14.103Z,101453.88
2022-08-21T19:38:42.616Z,101452.19
2022-08-21T19:41:12.242Z,101450.34
2022-08-21T19:43:43.727Z,101456.72
2022-08-21T19:46:11.679Z,101452.69
2022-08-21T19:48:40.679Z,101458.06
2022-08-21T19:51:08.663Z,101461.09
2022-08-21T19:53:37.641Z,101463.78
2022-08-21T19:56:07.524Z,101463.13
2022-08-21T19:58:40.629Z,101464.13
2022-08-21T20:01:12.478Z,101464.66
2022-08-21T20:03:45.291Z,101467.16
2022-08-21T20:06:24.089Z,101460.13
2022-08-21T20:08:54.631Z,101467.16
2022-08-21T20:11:26.849Z,101461.97
2022-08-21T20:13:54.865Z,101463.81
2022-08-21T20:16:23.155Z,101463.81
2022-08-21T20:18:50.747Z,101467.69
2022-08-21T20:21:19.951Z,101470.53
2022-08-21T20:23:49.014Z,101466.38
2022-08-21T20:26:18.616Z,101471.94
2022-08-21T20:28:46.347Z,101466.72
2022-08-21T20:31:19.604Z,101466.22
2022-08-21T20:33:49.495Z,101456.50
2022-08-21T20:36:17.428Z,101460.38
2022-08-21T20:41:34.847Z,101456.53
2022-08-21T20:44:02.985Z,101465.59
2022-08-21T20:46:33.263Z,101463.94
2022-08-21T20:49:01.923Z,101470.28
2022-08-21T20:51:33.070Z,101461.41
2022-08-21T20:54:04.386Z,101476.66
2022-08-21T20:56:39.376Z,101474.00
2022-08-21T20:59:15.991Z,101467.13
2022-08-21T21:01:44.751Z,101474.53
2022-08-21T21:04:19.560Z,101478.38
2022-08-21T21:06:49.867Z,101473.19
2022-08-21T21:09:22.970Z,101478.56
2022-08-21T21:11:56.216Z,101473.53
2022-08-21T21:14:37.385Z,101483.44
2022-08-21T21:17:09.061Z,101466.81
2022-08-21T21:19:39.343Z,101482.75
2022-08-21T21:22:10.077Z,101481.25
2022-08-21T21:24:42.294Z,101471.88
2022-08-21T21:27:18.431Z,101471.72
2022-08-21T21:29:49.068Z,101467.03
2022-08-21T21:32:17.900Z,101469.72
2022-08-21T21:35:05.805Z,101475.25
2022-08-21T21:37:39.128Z,101473.41
2022-08-21T21:40:20.922Z,101473.91
2022-08-21T21:42:57.950Z,101480.47
2022-08-21T21:45:28.146Z,101481.66
2022-08-21T21:48:04.162Z,101481.97
2022-08-21T21:50:45.460Z,101484.31
2022-08-21T21:53:23.858Z,101482.78
2022-08-21T21:56:07.484Z,101479.78
2022-08-21T21:58:46.135Z,101483.63
2022-08-21T22:01:18.809Z,101486.84
2022-08-21T22:03:51.348Z,101491.50
2022-08-21T22:06:27.232Z,101484.81
2022-08-21T22:09:00.468Z,101481.63
2022-08-21T22:11:33.261Z,101480.13
2022-08-21T22:14:06.290Z,101489.19
2022-08-21T22:16:36.603Z,101491.53
2022-08-21T22:19:13.718Z,101489.66
2022-08-21T22:21:45.361Z,101486.50
2022-08-21T22:24:16.826Z,101480.78
2022-08-21T22:26:47.823Z,101486.81
2022-08-21T22:29:19.842Z,101491.53
2022-08-21T22:32:04.937Z,101497.88
2022-08-21T22:35:02.315Z,101500.09
2022-08-21T22:37:35.822Z,101498.56
2022-08-21T22:40:04.862Z,101502.41
2022-08-21T22:42:32.498Z,101498.91
2022-08-21T22:45:04.789Z,101504.09
2022-08-21T22:47:39.022Z,101506.09
2022-08-21T22:50:16.967Z,101499.91
2022-08-21T22:52:47.125Z,101496.53
2022-08-21T22:55:24.120Z,101500.22
2022-08-21T22:58:03.087Z,101503.91
2022-08-21T23:00:44.656Z,101505.91
2022-08-21T23:03:19.646Z,101496.19
2022-08-21T23:05:50.753Z,101502.88
2022-08-21T23:08:25.563Z,101497.22
2022-08-21T23:10:59.642Z,101493.84
2022-08-21T23:13:30.024Z,101495.84
2022-08-21T23:16:04.719Z,101487.63
2022-08-21T23:18:55.756Z,101483.47
2022-08-21T23:21:29.367Z,101477.44
2022-08-21T23:24:19.219Z,101482.63
2022-08-21T23:26:55.361Z,101485.47
2022-08-21T23:29:30.306Z,101482.09
2022-08-21T23:32:04.626Z,101477.44
2022-08-21T23:34:42.335Z,101481.78
2022-08-21T23:37:48.340Z,101481.97
2022-08-21T23:40:38.718Z,101470.88
2022-08-21T23:43:24.411Z,101473.72
2022-08-21T23:46:33.964Z,101468.38
2022-08-21T23:49:12.402Z,101466.00
2022-08-21T23:51:50.302Z,101474.03
2022-08-21T23:54:22.479Z,101462.78
2022-08-21T23:57:02.251Z,101471.22
2022-08-21T23:59:44.762Z,101460.94
